Latest Weather Observations for Richmond

IDQ60801

Issued at 10:35 pm EST Wednesday 20 August 2014 (issued every 30 minutes, with the page automatically refreshed every 10 minutes)

About weather observations | Map of weather stations | Latest weather observations for QLD | Other Formats
Station Details ID: 030161 Name: RICHMOND AIRPORT Lat: -20.70 Lon: 143.12 Height: 206.3 m
Data from the previous 72 hours. | See also: Recent months at Richmond
Date/Time
EST
Temp
°C
App
Temp
°C
Dew
Point
Rel
Hum
%
Delta-T
°C
Wind Press
QNH
hPa
Press
MSL
hPa
Rain
since 9 am
mm
Dir
 
Spd
km/h
Gust
km/h
Spd
kts
Gust
kts
20/10:30pm 16.2 11.1 -1.8 29 7.5 S 15 19 8 10 1017.1 1016.5 0.2
20/10:00pm 16.6 11.1 -2.0 28 7.7 S 17 20 9 11 1017.1 1016.5 0.2
20/09:30pm 16.7 11.2 -2.4 27 7.9 S 17 20 9 11 1016.9 1016.3 0.2
20/09:00pm 17.5 12.0 -2.2 26 8.2 S 17 20 9 11 1016.5 1015.9 0.2
20/08:30pm 19.2 13.4 -1.3 25 8.9 S 19 20 10 11 1016.2 1015.6 0.2
20/08:00pm 18.8 13.4 -1.1 26 8.6 SW 17 20 9 11 1015.5 1014.9 0.2
20/07:30pm 18.1 12.5 -2.8 24 8.7 SW 17 20 9 11 1015.2 1014.6 0.2
20/07:00pm 20.5 16.4 -0.2 25 9.2 W 11 13 6 7 1015.1 1014.5 0.2
20/06:30pm 22.1 17.7 0.6 24 9.9 W 13 17 7 9 1014.8 1014.2 0.2
20/06:00pm 24.7 20.0 0.9 21 11.2 W 15 20 8 11 1014.6 1014.0 0.2
20/05:30pm 25.9 20.5 1.2 20 11.8 W 19 24 10 13 1014.5 1013.9 0.2
20/05:00pm 26.4 22.2 1.7 20 12.0 NW 13 20 7 11 1014.0 1013.4 0.2
20/04:30pm 26.6 23.1 1.1 19 12.2 NW 9 20 5 11 1013.9 1013.3 0.2
20/04:00pm 26.8 21.4 1.3 19 12.3 W 19 24 10 13 1013.9 1013.3 0.2
20/03:30pm 26.3 23.1 0.9 19 12.1 NE 7 17 4 9 1014.0 1013.4 0.2
20/03:00pm 26.1 22.9 0.7 19 12.1 W 7 13 4 7 1014.5 1013.9 0.2
20/02:30pm 25.9 22.3 0.5 19 12.0 ENE 9 15 5 8 1014.9 1014.3 0.2
20/02:00pm 25.6 21.6 0.3 19 11.9 NW 11 17 6 9 1015.4 1014.8 0.2
20/01:30pm 25.3 21.2 0.0 19 11.8 NE 11 22 6 12 1015.7 1015.1 0.2
20/01:00pm 24.4 19.5 -0.7 19 11.4 SE 15 24 8 13 1016.2 1015.6 0.2
20/12:30pm 24.2 18.5 -0.9 19 11.4 E 19 26 10 14 1016.7 1016.1 0.2
20/12:00pm 24.0 18.2 -0.3 20 11.1 ESE 20 33 11 18 1017.3 1016.7 0.2
20/11:30am 22.7 16.0 -1.4 20 10.7 ESE 24 41 13 22 1017.8 1017.2 0.2
20/11:00am 21.6 14.1 -1.6 21 10.1 SE 28 37 15 20 1018.5 1018.0 0.2
20/10:30am 21.1 14.1 -0.2 24 9.6 ESE 26 35 14 19 1018.8 1018.3 0.2
20/10:00am 19.3 12.7 -0.7 26 8.7 ESE 24 32 13 17 1019.4 1018.9 0.2
20/09:30am 17.4 11.1 -1.3 28 7.9 ESE 22 30 12 16 1019.4 1018.9 0.2
20/09:00am 15.9 10.5 -1.2 31 7.2 ESE 17 20 9 11 1019.4 1018.9 0.0
20/08:30am 13.9 8.4 -2.1 33 6.5 ESE 17 19 9 10 1019.4 1018.9 0.0
20/08:00am 11.1 7.2 -1.6 41 5.0 E 9 11 5 6 1019.3 1018.8 0.0
20/07:30am 6.1 1.4 -5.5 43 3.9 SSE 11 15 6 8 1018.7 1018.2 0.0
20/07:00am 4.6 -0.3 -6.6 44 3.6 SSE 11 13 6 7 1018.4 1017.9 0.0
20/06:30am 5.0 0.2 -5.6 46 3.5 SSE 11 13 6 7 1018.5 1018.0 0.0
20/06:00am 4.6 0.2 -6.3 45 3.5 SE 9 17 5 9 1018.0 1017.4 0.0
20/05:30am 6.8 1.5 -6.8 37 4.5 SE 13 19 7 10 1017.8 1017.2 0.0
20/05:00am 8.6 2.8 -4.6 39 4.7 E 17 19 9 10 1017.5 1016.9 0.0
20/04:30am 8.6 2.7 -5.2 37 4.9 E 17 19 9 10 1017.7 1017.1 0.0
20/04:00am 8.8 3.0 -5.1 37 4.9 E 17 19 9 10 1017.6 1017.0 0.0
20/03:30am 7.3 2.1 -6.1 38 4.6 ESE 13 13 7 7 1017.4 1016.8 0.0
20/03:00am 8.6 3.0 -6.4 34 5.1 E 15 17 8 9 1017.6 1017.0 0.0
20/02:30am 9.6 4.5 -5.5 34 5.4 E 13 17 7 9 1017.7 1017.1 0.0
20/02:00am 10.3 5.5 -5.6 32 5.7 E 11 13 6 7 1017.8 1017.2 0.0
20/01:30am 11.4 5.9 -5.1 31 6.1 ESE 15 19 8 10 1018.0 1017.4 0.0
20/01:00am 12.6 7.5 -4.9 29 6.5 SE 13 17 7 9 1018.1 1017.5 0.0
20/12:30am 14.0 8.2 -4.2 28 7.0 SE 17 24 9 13 1018.1 1017.5 0.0
20/12:00am 14.3 8.0 -3.9 28 7.1 SE 20 24 11 13 1018.1 1017.5 0.0
 
Date/Time
EST
Temp
°C
App
Temp
°C
Dew
Point
Rel
Hum
%
Delta-T
°C
Wind Press
QNH
hPa
Press
MSL
hPa
Rain
since 9 am
mm
Dir
 
Spd
km/h
Gust
km/h
Spd
kts
Gust
kts
19/11:30pm 14.0 8.3 -3.7 29 6.9 SE 17 22 9 12 1018.2 1017.6 0.0
19/11:00pm 13.8 8.1 -3.5 30 6.7 SE 17 20 9 11 1018.1 1017.5 0.0
19/10:30pm 13.7 8.5 -3.1 31 6.6 SE 15 19 8 10 1018.2 1017.6 0.0
19/10:00pm 13.0 7.3 -4.1 30 6.5 SSE 17 20 9 11 1018.1 1017.5 0.0
19/09:30pm 12.8 6.6 -4.8 29 6.6 SSE 19 20 10 11 1018.1 1017.5 0.0
19/09:00pm 14.1 8.0 -3.6 29 6.9 SSE 19 20 10 11 1017.9 1017.3 0.0
19/08:30pm 13.3 7.5 -4.8 28 6.8 SSE 17 19 9 10 1017.7 1017.1 0.0
19/08:00pm 14.1 8.3 -5.1 26 7.3 SSE 17 19 9 10 1017.4 1016.8 0.0
19/07:30pm 16.0 9.9 -4.0 25 7.9 SSE 19 20 10 11 1017.2 1016.6 0.0
19/07:00pm 17.7 12.0 -3.7 23 8.7 SSE 17 19 9 10 1017.0 1016.4 0.0
19/06:30pm 19.1 13.7 -4.4 20 9.5 SSE 15 19 8 10 1016.8 1016.2 0.0
19/06:00pm 21.9 15.9 -2.7 19 10.6 SSE 19 24 10 13 1016.5 1015.9 0.0
19/05:30pm 23.1 17.5 -2.5 18 11.2 SE 17 20 9 11 1016.3 1015.7 0.0
19/05:00pm 23.7 19.2 -3.6 16 11.7 SE 11 19 6 10 1016.2 1015.6 0.0
19/04:30pm 23.8 18.9 -3.5 16 11.8 SE 13 20 7 11 1016.1 1015.5 0.0
19/04:00pm 23.8 18.6 -2.7 17 11.6 SSE 15 20 8 11 1016.0 1015.4 0.0
19/03:30pm 23.8 17.8 -2.7 17 11.6 S 19 30 10 16 1016.0 1015.4 0.0
19/03:00pm 24.5 18.7 -1.3 18 11.6 S 19 22 10 12 1016.3 1015.7 0.0
19/02:30pm 24.2 19.1 -1.6 18 11.6 E 15 24 8 13 1016.8 1016.2 0.0
19/02:00pm 23.2 17.8 -1.7 19 11.0 SSE 17 28 9 15 1017.1 1016.5 0.0
19/01:30pm 24.2 18.7 0.5 21 11.1 SSE 19 30 10 16 1017.4 1016.8 0.0
19/01:00pm 23.6 18.0 0.0 21 10.8 SE 19 24 10 13 1018.0 1017.4 0.0
19/12:30pm 22.7 17.0 0.5 23 10.2 SE 20 26 11 14 1018.7 1018.2 0.0
19/12:00pm 21.8 15.4 0.9 25 9.6 SE 24 32 13 17 1019.3 1018.8 0.0
19/11:30am 21.0 14.2 0.8 26 9.2 SE 26 32 14 17 1020.0 1019.4 0.0
19/11:00am 20.2 13.1 1.6 29 8.6 ESE 28 33 15 18 1020.6 1020.0 0.0
19/10:30am 19.2 11.4 1.7 31 8.0 ESE 32 41 17 22 1021.0 1020.4 0.0
19/10:00am 17.9 10.4 1.0 32 7.5 E 30 41 16 22 1021.3 1020.7 0.0
19/09:30am 17.1 10.0 1.1 34 7.1 ESE 28 37 15 20 1021.4 1020.8 0.0
19/09:00am 16.0 8.8 0.6 35 6.7 E 28 37 15 20 1021.5 1020.9 0.0
19/08:30am 14.2 7.0 0.5 39 5.9 E 28 37 15 20 1021.2 1020.6 0.0
19/08:00am 12.4 6.0 0.8 45 4.9 E 24 30 13 16 1021.1 1020.5 0.0
19/07:30am 10.0 4.3 0.6 52 3.9 E 20 28 11 15 1020.8 1020.2 0.0
19/07:00am 8.5 2.9 0.0 55 3.4 E 19 24 10 13 1020.5 1019.9 0.0
19/06:30am 7.6 2.8 0.1 59 3.0 E 15 19 8 10 1020.2 1019.6 0.0
19/06:00am 6.1 2.4 -0.2 64 2.4 E 9 13 5 7 1019.8 1019.2 0.0
19/05:30am 6.4 2.7 -0.1 63 2.5 ESE 9 9 5 5 1019.3 1018.8 0.0
19/05:00am 6.5 2.8 0.0 63 2.5 E 9 11 5 6 1019.1 1018.6 0.0
19/04:30am 6.7 2.2 -0.1 62 2.7 SE 13 15 7 8 1019.1 1018.6 0.0
19/04:00am 7.5 3.5 0.7 62 2.7 SE 11 13 6 7 1019.1 1018.6 0.0
19/03:30am 8.2 3.8 0.4 58 3.1 SE 13 20 7 11 1018.9 1018.4 0.0
19/03:00am 8.7 5.6 1.4 60 3.0 ENE 7 7 4 4 1018.9 1018.4 0.0
19/02:30am 8.4 5.5 1.3 61 2.9 E 6 7 3 4 1018.7 1018.2 0.0
19/02:00am 8.6 5.0 0.3 56 3.3 SSE 9 9 5 5 1018.7 1018.2 0.0
19/01:30am 11.0 7.5 3.3 59 3.4 E 11 13 6 7 1018.8 1018.3 0.0
19/01:00am 9.2 4.9 0.9 56 3.4 SE 13 17 7 9 1018.8 1018.3 0.0
19/12:30am 11.6 8.7 2.4 53 4.0 ESE 7 9 4 5 1019.0 1018.5 0.0
19/12:00am 12.2 9.4 2.9 53 4.1 ESE 7 9 4 5 1018.9 1018.4 0.0
 
Date/Time
EST
Temp
°C
App
Temp
°C
Dew
Point
Rel
Hum
%
Delta-T
°C
Wind Press
QNH
hPa
Press
MSL
hPa
Rain
since 9 am
mm
Dir
 
Spd
km/h
Gust
km/h
Spd
kts
Gust
kts
18/11:30pm 12.2 8.2 2.9 53 4.1 SE 13 15 7 8 1019.0 1018.5 0.0
18/11:00pm 11.5 7.7 1.7 51 4.2 SE 11 13 6 7 1019.1 1018.6 0.0
18/10:30pm 12.1 7.5 1.7 49 4.5 SSE 15 17 8 9 1019.2 1018.7 0.0
18/10:00pm 13.2 9.1 2.1 47 4.9 SE 13 17 7 9 1019.1 1018.6 0.0
18/09:30pm 13.7 9.3 2.6 47 5.0 SSE 15 17 8 9 1019.0 1018.5 0.0
18/09:00pm 14.8 10.0 2.7 44 5.5 SSE 17 19 9 10 1018.8 1018.3 0.0
18/08:30pm 15.1 10.2 2.0 41 5.8 SSE 17 19 9 10 1018.5 1018.0 0.0
18/08:00pm 15.4 10.5 1.9 40 6.0 SSE 17 19 9 10 1018.3 1017.8 0.0
18/07:30pm 15.7 10.6 0.7 36 6.5 SSE 17 17 9 9 1018.0 1017.4 0.0
18/07:00pm 17.8 13.6 1.7 34 7.3 SSE 13 17 7 9 1017.7 1017.1 0.0
18/06:30pm 19.3 15.2 2.2 32 7.9 SE 13 15 7 8 1017.5 1016.9 0.0
18/06:00pm 21.3 17.3 2.6 29 8.9 SE 13 19 7 10 1017.4 1016.8 0.0
18/05:30pm 22.2 17.1 2.8 28 9.3 SE 19 26 10 14 1017.3 1016.7 0.0
18/05:00pm 22.7 17.5 2.2 26 9.7 SSE 19 30 10 16 1017.0 1016.4 0.0
18/04:30pm 23.1 18.0 3.1 27 9.7 SE 19 43 10 23 1016.8 1016.2 0.0
18/04:00pm 22.7 17.3 2.2 26 9.7 S 20 30 11 16 1016.7 1016.1 0.0
18/03:30pm 22.8 17.7 2.8 27 9.6 SSE 19 26 10 14 1016.6 1016.0 0.0
18/03:00pm 22.7 17.5 2.2 26 9.7 SSE 19 28 10 15 1016.8 1016.2 0.0
18/02:30pm 22.1 16.9 2.2 27 9.4 SE 19 28 10 15 1017.1 1016.5 0.0
18/02:00pm 22.4 17.7 3.0 28 9.3 ESE 17 24 9 13 1017.4 1016.8 0.0
18/01:30pm 21.9 16.8 4.0 31 8.8 SSE 20 26 11 14 1017.6 1017.0 0.0
18/01:00pm 21.2 16.8 4.7 34 8.1 SE 17 28 9 15 1018.1 1017.5 0.0
18/12:30pm 20.6 15.3 5.0 36 7.7 SE 22 26 12 14 1018.8 1018.3 0.0
18/12:00pm 19.6 14.7 5.3 39 7.0 SE 20 35 11 19 1019.6 1019.0 0.0
18/11:30am 19.8 14.7 6.2 41 6.9 ESE 22 28 12 15 1020.1 1019.5 0.0
18/11:00am 18.0 12.9 5.9 45 6.0 E 22 28 12 15 1020.6 1020.0 0.0
18/10:30am 17.5 12.4 6.1 47 5.6 ESE 22 30 12 16 1021.0 1020.4 0.0
18/10:00am 16.4 10.9 5.7 49 5.2 ESE 24 32 13 17 1021.2 1020.6 0.0
18/09:30am 16.2 11.1 5.8 50 5.1 ESE 22 32 12 17 1021.3 1020.7 0.0
18/09:00am 14.1 8.1 5.2 55 4.2 ESE 26 33 14 18 1021.2 1020.6 0.0
18/08:30am 13.4 8.5 5.3 58 3.8 ESE 20 28 11 15 1021.0 1020.4 0.0
18/08:00am 11.5 7.1 4.7 63 3.1 E 17 22 9 12 1020.9 1020.3 0.0
18/07:30am 10.0 6.3 4.4 68 2.5 ESE 13 19 7 10 1020.6 1020.0 0.0
18/07:00am 9.4 5.3 4.6 72 2.2 ESE 15 22 8 12 1020.4 1019.8 0.0
18/06:30am 7.6 3.2 2.5 70 2.1 SE 15 17 8 9 1020.1 1019.5 0.0
18/06:00am 7.4 2.5 1.7 67 2.3 SSE 17 19 9 10 1019.7 1019.1 0.0
18/05:30am 7.6 3.5 2.1 68 2.3 SE 13 15 7 8 1019.3 1018.8 0.0
18/05:00am 6.0 0.8 -0.1 65 2.4 S 17 19 9 10 1018.8 1018.3 0.0
18/04:30am 6.1 1.2 -0.2 64 2.4 S 15 17 8 9 1018.7 1018.2 0.0
18/04:00am 7.3 2.2 0.7 63 2.6 S 17 19 9 10 1018.6 1018.1 0.0
18/03:30am 7.6 2.9 0.8 62 2.7 S 15 17 8 9 1018.6 1018.1 0.0
18/03:00am 8.0 3.2 0.3 58 3.1 S 15 17 8 9 1018.6 1018.1 0.0
18/02:30am 8.9 4.2 0.9 57 3.3 S 15 15 8 8 1018.8 1018.3 0.0
18/02:00am 10.1 5.4 1.2 54 3.7 S 15 19 8 10 1018.9 1018.4 0.0
18/01:30am 10.2 5.4 0.5 51 4.0 S 15 19 8 10 1019.0 1018.5 0.0
18/01:00am 10.8 5.8 1.1 51 4.1 S 17 20 9 11 1019.0 1018.5 0.0
18/12:30am 10.4 5.6 0.4 50 4.1 S 15 19 8 10 1018.9 1018.4 0.0
18/12:00am 10.5 5.7 0.0 48 4.3 SSE 15 19 8 10 1019.0 1018.5 0.0
 
Date/Time
EST
Temp
°C
App
Temp
°C
Dew
Point
Rel
Hum
%
Delta-T
°C
Wind Press
QNH
hPa
Press
MSL
hPa
Rain
since 9 am
mm
Dir
 
Spd
km/h
Gust
km/h
Spd
kts
Gust
kts
17/11:30pm 10.6 5.4 -0.2 47 4.4 SSE 17 19 9 10 1019.1 1018.6 0.0
17/11:00pm 11.3 6.1 -0.2 45 4.7 SSE 17 19 9 10 1019.1 1018.6 0.0

Other Formats:

Comma delimited format used in spreadsheet applications
http://www.bom.gov.au/fwo/IDQ60801/IDQ60801.94341.axf

JavaScript Object Notation format (JSON) in row-major order
http://www.bom.gov.au/fwo/IDQ60801/IDQ60801.94341.json